Time;durP1;ratioP1;P1;durP2;ratioP2;P2;SDS_P1;SDS_P2;PMS_P1;PMS_P2;Temp;Humidity;BMP_temperature;BMP_pressure;BME280_temperature;BME280_humidity;BME280_pressure;Samples;Min_cycle;Max_cycle;Signal;HPM_P1;HPM_P2
2021/09/24 00:00:17;;;;;;;0.50;0.40;;;15.60;99.90;;;;;;5054495;28;20442;-77
2021/09/24 00:02:45;;;;;;;1.63;1.00;;;15.60;99.90;;;;;;5055126;28;20444;-75
2021/09/24 00:05:12;;;;;;;0.97;0.97;;;15.60;99.90;;;;;;5054680;28;20481;-78
2021/09/24 00:07:39;;;;;;;2.53;0.90;;;15.50;99.90;;;;;;5054894;28;20446;-78
2021/09/24 00:10:07;;;;;;;5.40;1.83;;;15.50;99.90;;;;;;5054627;28;20430;-75
2021/09/24 00:12:35;;;;;;;2.63;1.47;;;15.50;99.90;;;;;;5054562;28;21111;-77
2021/09/24 00:15:02;;;;;;;0.50;0.33;;;15.50;99.90;;;;;;5055022;28;20456;-78
2021/09/24 00:17:28;;;;;;;0.60;0.60;;;15.50;99.90;;;;;;5055183;28;20461;-78
2021/09/24 00:19:56;;;;;;;0.50;0.30;;;15.50;99.90;;;;;;5054494;28;20438;-78
2021/09/24 00:22:23;;;;;;;0.83;0.83;;;15.60;99.90;;;;;;5054614;28;20442;-78
2021/09/24 00:24:50;;;;;;;0.50;0.40;;;15.60;99.90;;;;;;5054011;28;20477;-79
2021/09/24 00:27:17;;;;;;;0.77;0.77;;;15.60;99.90;;;;;;5057278;28;20970;-77
2021/09/24 00:29:43;;;;;;;1.27;1.17;;;15.60;99.90;;;;;;5054764;28;21048;-79
2021/09/24 00:32:11;;;;;;;0.50;0.40;;;15.60;99.90;;;;;;5053631;28;20448;-78
2021/09/24 00:34:37;;;;;;;0.50;0.40;;;15.60;99.90;;;;;;5054286;28;20473;-77
2021/09/24 00:37:05;;;;;;;0.50;0.40;;;15.60;99.90;;;;;;5054091;28;20822;-79
2021/09/24 00:39:32;;;;;;;0.50;0.37;;;15.60;99.90;;;;;;5054129;28;20442;-80
2021/09/24 00:41:59;;;;;;;0.50;0.40;;;15.60;99.90;;;;;;5053446;28;20442;-77
2021/09/24 00:44:27;;;;;;;0.50;0.30;;;15.60;99.90;;;;;;5053873;28;20461;-78
2021/09/24 00:46:54;;;;;;;0.50;0.40;;;15.60;99.90;;;;;;5053644;28;20481;-78
2021/09/24 00:49:21;;;;;;;0.60;0.50;;;15.50;99.90;;;;;;5053632;28;20437;-78
2021/09/24 00:54:34;;;;;;;0.50;0.40;;;15.50;99.90;;;;;;5055452;28;20458;-83
2021/09/24 00:57:02;;;;;;;0.70;0.70;;;15.50;99.90;;;;;;5059496;28;20438;-84
2021/09/24 00:59:30;;;;;;;3.53;3.27;;;15.50;99.90;;;;;;5059674;28;20429;-85
2021/09/24 01:01:57;;;;;;;0.50;0.30;;;15.50;99.90;;;;;;5059271;28;20445;-84
2021/09/24 01:04:24;;;;;;;0.90;0.73;;;15.50;99.90;;;;;;5039683;28;20434;-84
2021/09/24 01:06:51;;;;;;;0.50;0.40;;;15.50;99.90;;;;;;5039720;28;20445;-83
2021/09/24 01:09:18;;;;;;;3.13;1.27;;;15.50;99.90;;;;;;5038137;28;20805;-84
2021/09/24 01:11:47;;;;;;;7.00;2.20;;;15.50;99.90;;;;;;5036792;28;20439;-83
2021/09/24 01:14:14;;;;;;;0.50;0.40;;;15.50;99.90;;;;;;5037804;28;20459;-84
2021/09/24 01:16:40;;;;;;;0.50;0.50;;;15.50;99.90;;;;;;5037383;28;20467;-84
2021/09/24 01:19:07;;;;;;;0.60;0.60;;;15.50;99.90;;;;;;5037040;28;20448;-81
2021/09/24 01:21:36;;;;;;;0.50;0.30;;;15.50;99.90;;;;;;5037108;28;20442;-84
2021/09/24 01:24:03;;;;;;;0.50;0.40;;;15.50;99.90;;;;;;5037403;28;20470;-83
2021/09/24 01:26:30;;;;;;;1.47;1.37;;;15.50;99.90;;;;;;5035721;28;20474;-84
2021/09/24 01:28:58;;;;;;;0.50;0.40;;;15.50;99.90;;;;;;5037223;28;20447;-84
2021/09/24 01:31:25;;;;;;;1.37;1.27;;;15.50;99.90;;;;;;5037287;28;20447;-83
2021/09/24 01:33:51;;;;;;;0.50;0.40;;;15.60;99.90;;;;;;5037195;28;20458;-84
2021/09/24 01:36:19;;;;;;;0.70;0.70;;;15.60;99.90;;;;;;5038133;28;20434;-84
2021/09/24 01:38:47;;;;;;;0.97;0.97;;;15.60;99.90;;;;;;5037896;28;20591;-84
2021/09/24 01:41:13;;;;;;;0.50;0.40;;;15.60;99.90;;;;;;5037854;28;20804;-83
2021/09/24 01:43:40;;;;;;;3.03;2.07;;;15.60;99.90;;;;;;5037341;28;20462;-83
2021/09/24 01:46:07;;;;;;;0.60;0.60;;;15.60;99.90;;;;;;5037006;28;20474;-84
2021/09/24 01:48:34;;;;;;;2.10;2.00;;;15.50;99.90;;;;;;5037326;28;20944;-83
2021/09/24 01:51:00;;;;;;;0.50;0.40;;;15.50;99.90;;;;;;5037612;28;20442;-84
2021/09/24 01:53:27;;;;;;;0.60;0.30;;;15.50;99.90;;;;;;5036877;28;20474;-84
2021/09/24 01:55:55;;;;;;;0.50;0.50;;;15.50;99.90;;;;;;5037615;28;20446;-84
2021/09/24 01:58:22;;;;;;;0.50;0.30;;;15.60;99.90;;;;;;5037322;28;20450;-84
2021/09/24 02:00:48;;;;;;;0.50;0.40;;;15.60;99.90;;;;;;5036879;28;20939;-84
2021/09/24 02:03:15;;;;;;;0.50;0.40;;;15.60;99.90;;;;;;5036388;28;20472;-84
2021/09/24 02:05:42;;;;;;;0.50;0.30;;;15.60;99.90;;;;;;5036739;28;20485;-83
2021/09/24 02:08:09;;;;;;;0.50;0.30;;;15.60;99.90;;;;;;5036898;28;20450;-84
2021/09/24 02:10:36;;;;;;;4.00;1.10;;;15.60;99.90;;;;;;5036826;28;20951;-83
2021/09/24 02:13:04;;;;;;;0.50;0.40;;;15.60;99.90;;;;;;5037500;28;20459;-84
2021/09/24 02:15:30;;;;;;;0.50;0.30;;;15.60;99.90;;;;;;5037636;28;20438;-84
2021/09/24 02:17:57;;;;;;;0.50;0.40;;;15.60;99.90;;;;;;5037293;28;20442;-85
2021/09/24 02:20:24;;;;;;;0.50;0.30;;;15.60;99.90;;;;;;5037980;28;20520;-83
2021/09/24 02:22:51;;;;;;;1.53;1.43;;;15.60;99.90;;;;;;5037133;28;20489;-84
2021/09/24 02:25:17;;;;;;;9.77;3.93;;;15.70;99.90;;;;;;5037116;28;20478;-83
2021/09/24 02:27:44;;;;;;;0.50;0.40;;;15.70;99.90;;;;;;5037415;28;20954;-84
2021/09/24 02:30:13;;;;;;;0.50;0.40;;;15.70;99.90;;;;;;5036511;28;20848;-84
2021/09/24 02:32:40;;;;;;;0.50;0.30;;;15.60;99.90;;;;;;5037107;28;20471;-83
2021/09/24 02:35:08;;;;;;;0.60;0.60;;;15.70;99.90;;;;;;5037055;28;20443;-84
2021/09/24 02:37:35;;;;;;;0.50;0.40;;;15.70;99.90;;;;;;5037081;28;20517;-84
2021/09/24 02:40:02;;;;;;;0.50;0.40;;;15.70;99.90;;;;;;5037651;28;20947;-83
2021/09/24 02:42:29;;;;;;;1.73;1.27;;;15.70;99.90;;;;;;5036784;28;20459;-84
2021/09/24 02:44:56;;;;;;;2.00;1.90;;;15.70;99.90;;;;;;5036704;28;20469;-84
2021/09/24 02:47:24;;;;;;;4.63;4.23;;;15.70;99.90;;;;;;5037220;28;20454;-84
2021/09/24 02:49:51;;;;;;;1.17;1.07;;;15.70;99.90;;;;;;5036919;28;20451;-84
2021/09/24 02:52:17;;;;;;;0.50;0.40;;;15.70;99.90;;;;;;5036755;28;20449;-83
2021/09/24 02:54:44;;;;;;;3.33;1.73;;;15.70;99.90;;;;;;5037594;28;20449;-84
2021/09/24 02:57:11;;;;;;;3.47;1.90;;;15.70;99.90;;;;;;5037585;28;20434;-83
2021/09/24 02:59:38;;;;;;;1.07;0.97;;;15.70;99.90;;;;;;5037017;28;20435;-84
2021/09/24 03:02:04;;;;;;;0.50;0.47;;;15.70;99.90;;;;;;5036957;28;20442;-84
2021/09/24 03:04:33;;;;;;;0.60;0.60;;;15.70;99.90;;;;;;5037767;28;20443;-84
2021/09/24 03:07:00;;;;;;;2.10;2.00;;;15.70;99.90;;;;;;5036939;28;20483;-83
2021/09/24 03:09:26;;;;;;;0.70;0.70;;;15.70;99.90;;;;;;5037932;28;20450;-84
2021/09/24 03:11:53;;;;;;;0.50;0.40;;;15.70;99.90;;;;;;5037681;28;20439;-84
2021/09/24 03:14:20;;;;;;;0.70;0.70;;;15.70;99.90;;;;;;5037609;28;20462;-83
2021/09/24 03:16:47;;;;;;;1.43;0.73;;;15.70;99.90;;;;;;5039476;28;20435;-82
2021/09/24 03:19:18;;;;;;;1.07;0.40;;;15.70;99.90;;;;;;5039664;28;20501;-81
2021/09/24 03:21:46;;;;;;;2.27;1.57;;;15.70;99.90;;;;;;5038975;28;20530;-82
2021/09/24 03:24:13;;;;;;;0.93;0.93;;;15.70;99.90;;;;;;5038638;28;20466;-82
2021/09/24 03:26:40;;;;;;;0.60;0.40;;;15.70;99.90;;;;;;5040338;28;20481;-82
2021/09/24 03:29:09;;;;;;;1.63;1.53;;;15.70;99.90;;;;;;5041511;28;20438;-82
2021/09/24 03:31:37;;;;;;;7.93;1.43;;;15.70;99.90;;;;;;5039400;28;20438;-82
2021/09/24 03:34:04;;;;;;;1.37;0.97;;;15.70;99.90;;;;;;5038732;28;20496;-82
2021/09/24 03:36:31;;;;;;;0.50;0.40;;;15.70;99.90;;;;;;5039305;28;20445;-83
2021/09/24 03:38:59;;;;;;;0.63;0.63;;;15.70;99.90;;;;;;5038722;28;20450;-85
2021/09/24 03:41:26;;;;;;;0.93;0.93;;;15.70;99.90;;;;;;5038836;28;20990;-84
2021/09/24 03:43:53;;;;;;;1.20;1.10;;;15.70;99.90;;;;;;5039019;28;20465;-83
2021/09/24 03:46:20;;;;;;;2.60;2.40;;;15.70;99.90;;;;;;5039121;28;20478;-83
2021/09/24 03:48:46;;;;;;;0.83;0.80;;;15.70;99.90;;;;;;5039246;28;20442;-83
2021/09/24 03:51:13;;;;;;;1.53;1.33;;;15.70;99.90;;;;;;5038685;28;20434;-82
2021/09/24 03:53:40;;;;;;;2.37;2.30;;;15.70;99.90;;;;;;5039085;28;20470;-83
2021/09/24 03:56:08;;;;;;;1.47;1.37;;;15.60;99.90;;;;;;5038684;28;20792;-83
2021/09/24 03:58:35;;;;;;;2.20;1.90;;;15.70;99.90;;;;;;5038761;28;20442;-83
2021/09/24 04:01:02;;;;;;;4.10;0.97;;;15.60;99.90;;;;;;5039154;28;20796;-83
2021/09/24 04:03:29;;;;;;;5.73;2.43;;;15.60;99.90;;;;;;5038584;28;20462;-82
2021/09/24 04:05:56;;;;;;;0.93;0.93;;;15.60;99.90;;;;;;5039072;28;20502;-83
2021/09/24 04:08:22;;;;;;;0.50;0.40;;;15.60;99.90;;;;;;5039060;28;20435;-83
2021/09/24 04:10:51;;;;;;;5.17;4.93;;;15.60;99.90;;;;;;5038394;28;20454;-82
2021/09/24 04:13:20;;;;;;;2.00;1.80;;;15.60;99.90;;;;;;5038536;28;20502;-83
2021/09/24 04:15:46;;;;;;;2.90;2.80;;;15.60;99.90;;;;;;5038582;28;20768;-82
2021/09/24 04:18:13;;;;;;;5.27;4.63;;;15.50;99.90;;;;;;5038123;28;20439;-83
2021/09/24 04:20:40;;;;;;;1.90;1.70;;;15.50;99.90;;;;;;5037557;28;20439;-82
2021/09/24 04:23:07;;;;;;;0.50;0.30;;;15.50;99.90;;;;;;5038410;28;20474;-83
2021/09/24 04:25:34;;;;;;;2.57;2.37;;;15.50;99.90;;;;;;5036962;28;20446;-83
2021/09/24 04:28:00;;;;;;;6.03;1.37;;;15.60;99.90;;;;;;5037741;28;20968;-82
2021/09/24 04:30:28;;;;;;;7.00;3.57;;;15.60;99.90;;;;;;5037312;28;20439;-84
2021/09/24 04:32:55;;;;;;;1.00;1.00;;;15.50;99.90;;;;;;5037441;28;20478;-83
2021/09/24 04:35:24;;;;;;;3.50;2.60;;;15.50;99.90;;;;;;5037495;28;20529;-82
2021/09/24 04:37:51;;;;;;;2.60;2.40;;;15.60;99.90;;;;;;5037897;28;20469;-82
2021/09/24 04:40:17;;;;;;;6.00;3.80;;;15.50;99.90;;;;;;5037089;28;20453;-82
2021/09/24 04:42:44;;;;;;;5.43;2.43;;;15.50;99.90;;;;;;5037308;28;20462;-83
2021/09/24 04:45:12;;;;;;;1.17;1.07;;;15.50;99.90;;;;;;5037450;28;20438;-82
2021/09/24 04:47:40;;;;;;;6.40;4.83;;;15.50;99.90;;;;;;5037423;28;20478;-82
2021/09/24 04:50:08;;;;;;;13.97;4.63;;;15.50;99.90;;;;;;5036939;28;20924;-82
2021/09/24 04:52:35;;;;;;;7.23;3.17;;;15.50;99.90;;;;;;5036753;28;20470;-81
2021/09/24 04:55:01;;;;;;;1.80;1.70;;;15.50;99.90;;;;;;5037158;28;20478;-81
2021/09/24 04:57:28;;;;;;;5.43;3.27;;;15.50;99.90;;;;;;5036777;28;20470;-81
2021/09/24 04:59:55;;;;;;;3.70;2.50;;;15.50;99.90;;;;;;5037121;28;20565;-81
2021/09/24 05:02:21;;;;;;;0.87;0.87;;;15.50;99.90;;;;;;5036600;28;20492;-81
2021/09/24 05:04:49;;;;;;;6.30;3.10;;;15.50;99.90;;;;;;5036427;28;20496;-81
2021/09/24 05:07:16;;;;;;;2.70;1.23;;;15.50;99.90;;;;;;5036881;28;20878;-81
2021/09/24 05:09:43;;;;;;;9.67;8.00;;;15.50;99.90;;;;;;5029441;28;20470;-82
2021/09/24 05:12:10;;;;;;;5.60;3.43;;;15.50;99.90;;;;;;5023918;28;20438;-81
2021/09/24 05:14:37;;;;;;;1.97;1.77;;;15.50;99.90;;;;;;5029543;28;20874;-81
2021/09/24 05:17:04;;;;;;;9.47;8.97;;;15.50;99.90;;;;;;5039387;28;20450;-82
2021/09/24 05:19:30;;;;;;;3.83;3.63;;;15.50;99.90;;;;;;5040668;28;20936;-85
2021/09/24 05:21:59;;;;;;;9.80;8.93;;;15.50;99.90;;;;;;5037765;28;20451;-81
2021/09/24 05:24:25;;;;;;;0.77;0.77;;;15.50;99.90;;;;;;5039245;28;20438;-81
2021/09/24 05:26:52;;;;;;;17.73;6.97;;;15.50;99.90;;;;;;5039110;28;20474;-81
2021/09/24 05:29:19;;;;;;;21.20;10.23;;;15.50;99.90;;;;;;5037666;28;20450;-78
2021/09/24 05:31:46;;;;;;;3.47;3.30;;;15.50;99.90;;;;;;5034248;28;20442;-78
2021/09/24 05:34:13;;;;;;;6.27;5.37;;;15.50;99.90;;;;;;5034501;28;20467;-78
2021/09/24 05:36:39;;;;;;;2.10;2.00;;;15.50;99.90;;;;;;5034866;28;20843;-80
2021/09/24 05:39:07;;;;;;;10.70;8.37;;;15.50;99.90;;;;;;5034725;28;20438;-79
2021/09/24 05:41:34;;;;;;;4.77;4.37;;;15.50;99.90;;;;;;5033823;28;20442;-78
2021/09/24 05:44:01;;;;;;;1.43;1.33;;;15.60;99.90;;;;;;5035185;28;20462;-79
2021/09/24 05:46:27;;;;;;;2.97;2.30;;;15.60;99.90;;;;;;5034121;28;21022;-78
2021/09/24 05:48:54;;;;;;;8.47;7.60;;;15.60;99.90;;;;;;5034403;28;20449;-78
2021/09/24 05:51:21;;;;;;;2.27;2.17;;;15.60;99.90;;;;;;5036691;28;20451;-78
2021/09/24 05:53:48;;;;;;;5.37;3.67;;;15.60;99.90;;;;;;5036794;28;20683;-78
2021/09/24 05:56:16;;;;;;;6.13;5.63;;;15.60;99.90;;;;;;5037833;28;20461;-78
2021/09/24 05:58:43;;;;;;;4.43;2.10;;;15.60;99.90;;;;;;5036831;28;21033;-79
2021/09/24 06:01:09;;;;;;;6.87;3.63;;;15.60;99.90;;;;;;5036804;28;20442;-79
2021/09/24 06:03:36;;;;;;;22.87;2.43;;;15.60;99.90;;;;;;5037461;28;20809;-79
2021/09/24 06:06:03;;;;;;;15.23;7.43;;;15.60;99.90;;;;;;5028000;28;20439;-79
2021/09/24 06:08:30;;;;;;;8.77;7.93;;;15.60;99.90;;;;;;5022301;28;20443;-78
2021/09/24 06:10:57;;;;;;;4.40;2.27;;;15.60;99.90;;;;;;5017323;28;20852;-79
2021/09/24 06:13:25;;;;;;;19.17;8.20;;;15.60;99.90;;;;;;5018376;28;20466;-78
2021/09/24 06:15:52;;;;;;;3.53;2.70;;;15.50;99.90;;;;;;5019340;28;20781;-80
2021/09/24 06:18:19;;;;;;;2.97;2.70;;;15.60;99.90;;;;;;5017981;28;20441;-79
2021/09/24 06:20:46;;;;;;;11.93;5.53;;;15.60;99.90;;;;;;5015112;28;20423;-79
2021/09/24 06:23:12;;;;;;;1.17;1.17;;;15.60;99.90;;;;;;5015872;28;20463;-80
2021/09/24 06:25:39;;;;;;;2.67;2.57;;;15.60;99.90;;;;;;5016140;28;20443;-77
2021/09/24 06:28:06;;;;;;;6.43;5.70;;;15.50;99.90;;;;;;5015875;28;20475;-78
2021/09/24 06:30:34;;;;;;;2.93;2.83;;;15.60;99.90;;;;;;5016055;28;20439;-78
2021/09/24 06:33:01;;;;;;;6.83;4.27;;;15.60;99.90;;;;;;5016361;28;20474;-78
2021/09/24 06:35:28;;;;;;;3.43;1.80;;;15.50;99.90;;;;;;5015056;28;20462;-78
2021/09/24 06:37:54;;;;;;;2.63;2.40;;;15.50;99.90;;;;;;5016166;28;20459;-78
2021/09/24 06:40:21;;;;;;;18.23;10.13;;;15.50;99.90;;;;;;5015002;28;20975;-79
2021/09/24 06:42:48;;;;;;;5.40;3.57;;;15.40;99.90;;;;;;5014702;28;20570;-78
2021/09/24 06:45:15;;;;;;;4.30;2.43;;;15.30;99.90;;;;;;5013678;28;20948;-78
2021/09/24 06:47:43;;;;;;;11.43;6.03;;;15.30;99.90;;;;;;5017156;28;20960;-79
2021/09/24 06:50:11;;;;;;;5.77;5.07;;;15.30;99.90;;;;;;5018612;28;20432;-79
2021/09/24 06:52:38;;;;;;;1.10;1.10;;;15.30;99.90;;;;;;5018604;28;20478;-79
2021/09/24 06:55:06;;;;;;;8.50;3.30;;;15.30;99.90;;;;;;5019368;28;20446;-78
2021/09/24 06:57:34;;;;;;;11.30;4.83;;;15.30;99.90;;;;;;5019586;28;20947;-79
2021/09/24 07:00:00;;;;;;;6.20;5.80;;;15.40;99.90;;;;;;5019456;28;20944;-78
2021/09/24 07:02:27;;;;;;;1.73;1.63;;;15.30;99.90;;;;;;5018420;28;20463;-79
2021/09/24 07:04:55;;;;;;;22.13;6.80;;;15.30;99.90;;;;;;5018182;28;20442;-79
2021/09/24 07:07:22;;;;;;;1.77;1.67;;;15.20;99.90;;;;;;5018352;28;20478;-79
2021/09/24 07:09:48;;;;;;;1.53;1.50;;;15.10;99.90;;;;;;5017460;28;20443;-79
2021/09/24 07:12:15;;;;;;;18.47;7.00;;;15.20;99.90;;;;;;5017548;28;20521;-80
2021/09/24 07:14:42;;;;;;;11.97;8.93;;;15.20;99.90;;;;;;5019354;28;20447;-79
2021/09/24 07:17:09;;;;;;;4.17;3.27;;;15.20;99.90;;;;;;5018426;28;20530;-80
2021/09/24 07:19:36;;;;;;;0.70;0.63;;;15.20;99.90;;;;;;5019133;28;20444;-80
2021/09/24 07:22:04;;;;;;;2.10;2.00;;;15.20;99.90;;;;;;5017970;28;20522;-79
2021/09/24 07:24:31;;;;;;;2.63;1.30;;;15.20;99.90;;;;;;5017361;28;20443;-79
2021/09/24 07:26:57;;;;;;;0.60;0.53;;;15.20;99.90;;;;;;5018261;28;20474;-80
2021/09/24 07:29:24;;;;;;;1.33;0.80;;;15.30;99.90;;;;;;5017615;28;20443;-79
2021/09/24 07:31:51;;;;;;;17.77;7.83;;;15.30;99.90;;;;;;5018200;28;20449;-78
2021/09/24 07:34:18;;;;;;;20.03;5.27;;;15.30;99.90;;;;;;5018062;28;20463;-78
2021/09/24 07:36:44;;;;;;;11.37;9.13;;;15.30;99.90;;;;;;5017101;28;20439;-78
2021/09/24 07:39:13;;;;;;;11.73;7.67;;;15.20;99.90;;;;;;5018008;28;20805;-78
2021/09/24 07:41:40;;;;;;;6.77;3.80;;;15.20;99.90;;;;;;5017152;28;20450;-78
2021/09/24 07:44:07;;;;;;;19.63;6.50;;;15.20;99.90;;;;;;5019100;28;20497;-79
2021/09/24 07:46:35;;;;;;;2.20;2.10;;;15.20;99.90;;;;;;5018601;28;20440;-79
2021/09/24 07:49:02;;;;;;;1.13;1.07;;;15.30;99.90;;;;;;5020224;28;20446;-79
2021/09/24 07:51:29;;;;;;;2.30;2.10;;;15.40;99.90;;;;;;5018273;28;20440;-79
2021/09/24 07:53:56;;;;;;;4.90;4.40;;;15.50;99.90;;;;;;5020883;28;20871;-79
2021/09/24 07:56:25;;;;;;;2.47;2.37;;;15.50;99.90;;;;;;5033951;28;20453;-79
2021/09/24 07:58:52;;;;;;;13.33;4.53;;;15.50;99.90;;;;;;5040782;22;22217;-79
2021/09/24 08:01:19;;;;;;;5.40;4.73;;;15.40;99.90;;;;;;5064047;28;20433;-82
2021/09/24 08:03:45;;;;;;;0.80;0.67;;;15.40;99.90;;;;;;5080493;28;20457;-84
2021/09/24 08:06:13;;;;;;;0.50;0.40;;;15.40;99.90;;;;;;5083739;28;20433;-82
2021/09/24 08:08:39;;;;;;;3.50;3.37;;;15.40;99.90;;;;;;5085284;28;20476;-83
2021/09/24 08:11:06;;;;;;;3.17;2.97;;;15.50;99.90;;;;;;5085588;28;20444;-82
2021/09/24 08:13:34;;;;;;;2.03;1.83;;;15.60;99.90;;;;;;5087046;28;20433;-81
2021/09/24 08:16:01;;;;;;;3.00;1.47;;;15.60;99.90;;;;;;5085174;28;20444;-81
2021/09/24 08:18:28;;;;;;;2.53;2.33;;;15.60;99.90;;;;;;5084160;28;20437;-83
2021/09/24 08:20:55;;;;;;;7.90;1.60;;;15.60;99.90;;;;;;5082776;28;20444;-83
2021/09/24 08:23:22;;;;;;;2.40;2.30;;;15.50;99.90;;;;;;5084476;28;20445;-82
2021/09/24 08:25:49;;;;;;;1.00;1.00;;;15.50;99.90;;;;;;5085985;28;20441;-82
2021/09/24 08:28:16;;;;;;;0.70;0.70;;;15.50;99.90;;;;;;5085297;28;20492;-81
2021/09/24 08:30:45;;;;;;;4.73;3.70;;;15.50;99.90;;;;;;5085259;28;20479;-83
2021/09/24 08:33:14;;;;;;;0.90;0.90;;;15.50;99.90;;;;;;5088269;28;20974;-83
2021/09/24 08:35:41;;;;;;;0.50;0.40;;;15.50;99.90;;;;;;5086298;28;20432;-82
2021/09/24 08:38:08;;;;;;;0.60;0.60;;;15.60;99.90;;;;;;5087831;28;20435;-82
2021/09/24 08:40:34;;;;;;;4.33;4.10;;;15.60;99.90;;;;;;5087117;28;20464;-82
2021/09/24 08:43:02;;;;;;;3.90;2.93;;;15.60;99.90;;;;;;5087095;28;20464;-82
2021/09/24 08:45:31;;;;;;;1.00;1.00;;;15.60;99.90;;;;;;5086625;28;20462;-81
2021/09/24 08:48:01;;;;;;;11.57;2.40;;;15.60;99.90;;;;;;5086132;28;20468;-82
2021/09/24 08:50:30;;;;;;;0.90;0.90;;;15.60;99.90;;;;;;5085616;28;20473;-81
2021/09/24 08:52:57;;;;;;;4.57;1.63;;;15.60;99.90;;;;;;5083276;28;20436;-82
2021/09/24 08:55:25;;;;;;;2.60;2.50;;;15.60;99.90;;;;;;5082968;28;20449;-82
2021/09/24 08:57:51;;;;;;;1.90;1.73;;;15.70;99.90;;;;;;5083663;28;20440;-82
2021/09/24 09:00:19;;;;;;;7.60;5.67;;;15.70;99.90;;;;;;5081215;28;20465;-82
2021/09/24 09:02:55;;;;;;;0.60;0.60;;;15.70;99.90;;;;;;5084375;28;20443;-82
2021/09/24 09:05:28;;;;;;;0.50;0.40;;;15.70;99.90;;;;;;5082195;28;20497;-82
2021/09/24 09:08:10;;;;;;;5.30;3.50;;;15.70;99.90;;;;;;5079884;28;20479;-82
2021/09/24 09:10:43;;;;;;;2.40;1.50;;;15.70;99.90;;;;;;5081332;28;20464;-82
2021/09/24 09:13:12;;;;;;;1.23;1.23;;;15.70;99.90;;;;;;5080577;28;20910;-81
2021/09/24 09:15:39;;;;;;;1.50;1.27;;;15.60;99.90;;;;;;5079920;28;20435;-81
2021/09/24 09:18:06;;;;;;;0.50;0.40;;;15.70;99.90;;;;;;5080943;28;20815;-82
2021/09/24 09:20:35;;;;;;;1.63;1.53;;;15.70;99.90;;;;;;5080508;28;20452;-81
2021/09/24 09:23:09;;;;;;;7.80;2.10;;;15.80;99.90;;;;;;5080942;28;20494;-83
2021/09/24 09:25:39;;;;;;;0.50;0.40;;;15.80;99.90;;;;;;5085407;28;20428;-83
2021/09/24 09:28:15;;;;;;;1.17;1.17;;;15.80;99.90;;;;;;5086566;28;20509;-82
2021/09/24 09:30:44;;;;;;;0.50;0.30;;;15.80;99.90;;;;;;5084259;28;20459;-82
2021/09/24 09:33:17;;;;;;;2.60;1.60;;;15.80;99.90;;;;;;5082047;28;20506;-82
2021/09/24 09:35:46;;;;;;;0.50;0.30;;;15.90;99.90;;;;;;5081428;28;20475;-83
2021/09/24 09:38:18;;;;;;;1.27;1.03;;;15.90;99.90;;;;;;5083011;28;20444;-84
2021/09/24 09:40:46;;;;;;;2.73;1.50;;;16.00;99.90;;;;;;5080799;28;20516;-81
2021/09/24 09:43:20;;;;;;;15.40;7.40;;;16.00;99.90;;;;;;5081394;28;20825;-82
2021/09/24 09:45:48;;;;;;;1.20;1.20;;;16.00;99.90;;;;;;5081236;28;20451;-83
2021/09/24 09:48:15;;;;;;;8.93;6.17;;;15.90;99.90;;;;;;5075014;28;20476;-80
2021/09/24 09:50:42;;;;;;;4.10;2.83;;;16.00;99.90;;;;;;5079898;28;20469;-81
2021/09/24 09:53:12;;;;;;;16.50;8.53;;;15.90;99.90;;;;;;5082133;28;20934;-83
2021/09/24 09:55:41;;;;;;;1.57;1.47;;;15.90;99.90;;;;;;5083389;28;20445;-83
2021/09/24 09:58:10;;;;;;;1.27;1.27;;;16.00;99.90;;;;;;5083816;28;20504;-80
2021/09/24 10:00:53;;;;;;;0.60;0.50;;;16.10;99.90;;;;;;5085594;28;20469;-82
2021/09/24 10:03:28;;;;;;;3.60;1.70;;;16.20;99.90;;;;;;5084142;28;20444;-80
2021/09/24 10:05:54;;;;;;;4.80;3.87;;;16.40;99.90;;;;;;5086391;28;20420;-80
2021/09/24 10:08:25;;;;;;;1.33;1.27;;;16.50;99.90;;;;;;5082949;28;20480;-82
2021/09/24 10:10:54;;;;;;;9.00;4.70;;;16.60;99.90;;;;;;5086191;28;20460;-82
2021/09/24 10:13:21;;;;;;;7.47;6.17;;;16.60;99.90;;;;;;5077942;28;20441;-82
2021/09/24 10:15:50;;;;;;;6.10;4.67;;;16.60;99.90;;;;;;5068693;28;20434;-81
2021/09/24 10:18:16;;;;;;;2.87;2.67;;;16.60;99.90;;;;;;5065517;28;20440;-80
2021/09/24 10:20:43;;;;;;;4.10;2.43;;;16.60;99.90;;;;;;5064982;28;20473;-81
2021/09/24 10:23:10;;;;;;;0.93;0.93;;;16.60;99.90;;;;;;5075660;28;20452;-81
2021/09/24 10:25:40;;;;;;;2.23;2.13;;;16.60;99.90;;;;;;5083546;28;20447;-77
2021/09/24 10:28:09;;;;;;;5.53;4.97;;;16.60;99.90;;;;;;5083850;28;21240;-81
2021/09/24 10:30:37;;;;;;;2.50;1.27;;;16.60;99.90;;;;;;5084821;28;20465;-80
2021/09/24 10:33:07;;;;;;;3.50;3.17;;;16.70;99.90;;;;;;5084589;28;20961;-80
2021/09/24 10:35:49;;;;;;;0.50;0.40;;;16.70;99.90;;;;;;5083642;28;20519;-80
2021/09/24 10:38:17;;;;;;;1.53;1.43;;;16.70;99.90;;;;;;5083585;28;20465;-79
2021/09/24 10:41:02;;;;;;;5.00;4.60;;;16.70;99.90;;;;;;5084661;28;20456;-80
2021/09/24 10:43:41;;;;;;;1.07;1.00;;;16.80;99.90;;;;;;5084378;28;20854;-79
2021/09/24 10:46:31;;;;;;;0.80;0.80;;;16.80;99.90;;;;;;5083616;28;20444;-80
2021/09/24 10:49:32;;;;;;;0.60;0.60;;;17.00;99.90;;;;;;5082280;28;20473;-81
2021/09/24 10:52:11;;;;;;;0.60;0.60;;;17.00;99.90;;;;;;5079629;28;20794;-79
2021/09/24 10:54:54;;;;;;;0.53;0.47;;;17.10;99.90;;;;;;5083020;28;20437;-81
2021/09/24 10:57:23;;;;;;;0.50;0.30;;;17.30;99.90;;;;;;5082936;28;20444;-79
2021/09/24 10:59:49;;;;;;;0.50;0.50;;;17.30;99.90;;;;;;5083377;28;20460;-81
2021/09/24 11:02:36;;;;;;;2.70;2.50;;;17.40;99.90;;;;;;5083672;28;20437;-79
2021/09/24 11:05:05;;;;;;;0.50;0.50;;;17.50;99.90;;;;;;5084513;28;20493;-80
2021/09/24 11:07:33;;;;;;;0.50;0.30;;;17.60;99.90;;;;;;5085246;28;20440;-78
2021/09/24 11:10:01;;;;;;;0.50;0.40;;;17.80;99.90;;;;;;5087875;28;20445;-82
2021/09/24 11:12:29;;;;;;;1.93;0.73;;;18.10;99.90;;;;;;5086999;28;20443;-79
2021/09/24 11:15:11;;;;;;;0.60;0.50;;;18.20;99.90;;;;;;5087211;28;20437;-80
2021/09/24 11:17:40;;;;;;;2.67;1.53;;;18.30;99.90;;;;;;5087073;28;20438;-82
2021/09/24 11:20:29;;;;;;;2.90;1.53;;;18.50;99.90;;;;;;5086173;28;20512;-78
2021/09/24 11:22:56;;;;;;;10.70;2.23;;;18.40;99.90;;;;;;5086345;28;20476;-80
2021/09/24 11:25:23;;;;;;;6.23;2.17;;;18.30;99.90;;;;;;5085828;28;20440;-79
2021/09/24 11:27:54;;;;;;;2.80;2.57;;;18.10;99.90;;;;;;5086260;28;20511;-82
2021/09/24 11:30:23;;;;;;;1.67;1.57;;;18.10;99.90;;;;;;5085783;28;20475;-83
2021/09/24 11:32:52;;;;;;;3.80;3.50;;;18.10;99.90;;;;;;5086505;28;20443;-81
2021/09/24 11:35:22;;;;;;;1.13;1.03;;;18.10;99.90;;;;;;5087618;28;20439;-82
2021/09/24 11:37:49;;;;;;;0.50;0.40;;;17.90;99.90;;;;;;5090163;28;20440;-81
2021/09/24 11:40:19;;;;;;;2.10;1.80;;;17.90;99.90;;;;;;5088225;28;20464;-83
2021/09/24 11:42:48;;;;;;;2.30;2.10;;;18.00;99.90;;;;;;5089529;28;20436;-81
2021/09/24 11:45:19;;;;;;;0.77;0.77;;;18.00;99.90;;;;;;5090064;28;20805;-82
2021/09/24 11:47:55;;;;;;;1.33;1.23;;;18.00;99.90;;;;;;5089391;28;20433;-82
2021/09/24 11:50:22;;;;;;;3.30;2.77;;;18.20;99.90;;;;;;5089057;28;20474;-82
2021/09/24 11:52:52;;;;;;;0.60;0.60;;;18.40;99.90;;;;;;5089702;28;20434;-80
2021/09/24 11:55:22;;;;;;;0.50;0.40;;;18.50;99.90;;;;;;5088991;28;20450;-81
2021/09/24 11:57:58;;;;;;;1.17;0.57;;;18.70;99.90;;;;;;5088684;28;20447;-82
2021/09/24 12:00:29;;;;;;;1.37;0.97;;;19.10;99.90;;;;;;5088213;28;20467;-81
2021/09/24 12:03:18;;;;;;;0.50;0.40;;;19.40;99.90;;;;;;5088368;28;20406;-80
2021/09/24 12:05:54;;;;;;;0.50;0.30;;;19.60;99.90;;;;;;5088779;28;20789;-83
2021/09/24 12:08:23;;;;;;;3.90;2.37;;;19.60;99.90;;;;;;5087791;28;20459;-82
2021/09/24 12:11:00;;;;;;;0.90;0.70;;;19.70;99.90;;;;;;5088251;28;20496;-81
2021/09/24 12:13:45;;;;;;;1.43;1.07;;;19.50;99.90;;;;;;5088323;28;20481;-81
2021/09/24 12:16:16;;;;;;;0.80;0.80;;;19.40;99.90;;;;;;5088909;28;20421;-82
2021/09/24 12:18:52;;;;;;;0.70;0.70;;;19.30;99.90;;;;;;5088628;28;20457;-83
2021/09/24 12:21:21;;;;;;;0.50;0.30;;;19.50;99.90;;;;;;5089121;28;20420;-81
2021/09/24 12:23:48;;;;;;;0.60;0.50;;;19.80;99.90;;;;;;5090398;28;20450;-82
2021/09/24 12:26:15;;;;;;;0.60;0.40;;;20.10;99.90;;;;;;5089735;28;20524;-82
2021/09/24 12:28:58;;;;;;;0.50;0.40;;;20.20;99.90;;;;;;5089813;28;20476;-80
2021/09/24 12:31:42;;;;;;;0.50;0.30;;;20.10;99.90;;;;;;5089289;28;20740;-81
2021/09/24 12:34:11;;;;;;;0.97;0.43;;;19.90;99.90;;;;;;5089485;28;20825;-82
2021/09/24 12:36:51;;;;;;;0.60;0.53;;;20.00;99.90;;;;;;5089147;28;20453;-80
2021/09/24 12:39:20;;;;;;;0.50;0.40;;;20.00;99.90;;;;;;5088716;28;20458;-82
2021/09/24 12:41:47;;;;;;;0.63;0.63;;;20.20;99.90;;;;;;5088833;28;20435;-82
2021/09/24 12:44:15;;;;;;;0.50;0.30;;;20.50;99.90;;;;;;5088034;28;20451;-81
2021/09/24 12:46:45;;;;;;;0.50;0.37;;;20.60;99.90;;;;;;5088457;28;20454;-78
2021/09/24 12:49:14;;;;;;;8.63;2.50;;;20.80;99.90;;;;;;5088119;28;20855;-81
2021/09/24 12:51:42;;;;;;;1.03;0.50;;;20.70;99.90;;;;;;5087347;28;20442;-81
2021/09/24 12:54:10;;;;;;;1.33;0.77;;;20.50;99.90;;;;;;5088324;28;20469;-80